createdAt,value
2023-01-11T00:01:12.143Z,99.90
2023-01-11T00:03:39.371Z,99.90
2023-01-11T00:06:08.130Z,99.90
2023-01-11T00:08:35.436Z,99.90
2023-01-11T00:11:03.312Z,99.90
2023-01-11T00:13:31.588Z,99.90
2023-01-11T00:16:06.189Z,99.90
2023-01-11T00:18:33.457Z,99.90
2023-01-11T00:21:05.587Z,99.90
2023-01-11T00:23:34.171Z,99.90
2023-01-11T00:26:11.368Z,99.90
2023-01-11T00:28:38.777Z,99.90
2023-01-11T00:31:06.273Z,99.90
2023-01-11T00:33:35.354Z,99.90
2023-01-11T00:36:02.607Z,99.90
2023-01-11T00:38:46.754Z,99.90
2023-01-11T00:41:34.594Z,99.90
2023-01-11T00:44:20.790Z,99.90
2023-01-11T00:47:07.002Z,99.90
2023-01-11T00:49:34.346Z,99.90
2023-01-11T00:52:02.009Z,99.90
2023-01-11T00:54:29.226Z,99.90
2023-01-11T00:56:56.449Z,99.90
2023-01-11T00:59:23.691Z,99.90
2023-01-11T01:01:51.010Z,99.90
2023-01-11T01:04:18.278Z,99.90
2023-01-11T01:06:45.648Z,99.90
2023-01-11T01:09:12.931Z,99.90
2023-01-11T01:11:40.190Z,99.90
2023-01-11T01:14:29.317Z,99.90
2023-01-11T01:16:59.769Z,99.90
2023-01-11T01:19:28.694Z,99.90
2023-01-11T01:21:57.484Z,99.90
2023-01-11T01:24:25.543Z,99.90
2023-01-11T01:26:52.828Z,99.90
2023-01-11T01:29:20.326Z,99.90
2023-01-11T01:31:47.649Z,99.90
2023-01-11T01:34:15.034Z,99.90
2023-01-11T01:36:42.551Z,99.90
2023-01-11T01:39:12.359Z,99.90
2023-01-11T01:41:39.957Z,99.90
2023-01-11T01:44:45.135Z,99.90
2023-01-11T01:47:16.607Z,99.90
2023-01-11T01:49:45.656Z,99.90
2023-01-11T01:55:29.059Z,99.90
2023-01-11T01:57:59.255Z,99.90
2023-01-11T02:00:26.739Z,99.90
2023-01-11T02:02:55.596Z,99.90
2023-01-11T02:05:22.996Z,99.90
2023-01-11T02:07:51.481Z,99.90
2023-01-11T02:10:23.220Z,99.90
2023-01-11T02:13:00.844Z,99.90
2023-01-11T02:15:29.496Z,99.90
2023-01-11T02:17:56.801Z,99.90
2023-01-11T02:20:43.001Z,99.90
2023-01-11T02:24:02.415Z,99.90
2023-01-11T02:26:35.808Z,99.90
2023-01-11T02:29:18.510Z,99.90
2023-01-11T02:31:52.516Z,99.90
2023-01-11T02:34:32.163Z,99.90
2023-01-11T02:37:38.416Z,99.90
2023-01-11T02:40:29.685Z,99.90
2023-01-11T02:43:32.522Z,99.90
2023-01-11T02:46:06.489Z,99.90
2023-01-11T02:48:47.012Z,99.90
2023-01-11T02:51:26.958Z,99.90
2023-01-11T02:53:58.755Z,99.90
2023-01-11T02:56:29.620Z,99.90
2023-01-11T02:58:58.499Z,99.90
2023-01-11T03:01:25.914Z,99.90
2023-01-11T03:03:53.918Z,99.90
2023-01-11T03:06:28.706Z,99.90
2023-01-11T03:09:14.583Z,99.90
2023-01-11T03:12:09.782Z,99.90
2023-01-11T03:15:01.828Z,99.90
2023-01-11T03:17:46.881Z,99.90
2023-01-11T03:20:38.482Z,99.90
2023-01-11T03:23:25.699Z,99.90
2023-01-11T03:26:22.464Z,99.90
2023-01-11T03:29:10.798Z,99.90
2023-01-11T03:32:14.143Z,99.90
2023-01-11T03:34:59.456Z,99.90
2023-01-11T03:37:33.032Z,99.90
2023-01-11T03:40:14.872Z,99.90
2023-01-11T03:43:04.693Z,99.90
2023-01-11T03:45:37.356Z,99.90
2023-01-11T03:48:08.220Z,99.90
2023-01-11T03:50:35.631Z,99.90
2023-01-11T03:53:06.633Z,99.90
2023-01-11T03:55:42.195Z,99.90
2023-01-11T03:58:10.182Z,99.90
2023-01-11T04:00:38.123Z,99.90
2023-01-11T04:03:05.883Z,99.90
2023-01-11T04:05:34.733Z,99.90
2023-01-11T04:08:01.995Z,99.90
2023-01-11T04:10:29.241Z,99.90
2023-01-11T04:12:57.093Z,99.90
2023-01-11T04:15:24.354Z,99.90
2023-01-11T04:17:51.625Z,99.90
2023-01-11T04:20:18.922Z,99.90
2023-01-11T04:22:46.188Z,99.90
2023-01-11T04:25:15.425Z,99.90
2023-01-11T04:27:42.654Z,99.90
2023-01-11T04:30:10.575Z,99.90
2023-01-11T04:32:37.821Z,99.90
2023-01-11T04:35:05.595Z,99.90
2023-01-11T04:37:32.830Z,99.90
2023-01-11T04:40:00.282Z,99.90
2023-01-11T04:42:27.588Z,99.90
2023-01-11T04:44:54.894Z,99.90
2023-01-11T04:47:23.946Z,99.90
2023-01-11T04:49:51.409Z,99.90
2023-01-11T04:52:20.566Z,99.90
2023-01-11T04:54:48.836Z,99.90
2023-01-11T04:57:17.445Z,99.90
2023-01-11T04:59:46.777Z,99.90
2023-01-11T05:02:14.800Z,99.90
2023-01-11T05:04:43.568Z,99.90
2023-01-11T05:07:11.651Z,99.90
2023-01-11T05:09:42.489Z,99.90
2023-01-11T05:12:22.146Z,99.90
2023-01-11T05:14:59.209Z,99.90
2023-01-11T05:17:26.663Z,99.90
2023-01-11T05:19:53.978Z,99.90
2023-01-11T05:22:22.712Z,99.90
2023-01-11T05:24:50.128Z,99.90
2023-01-11T05:27:17.431Z,99.90
2023-01-11T05:29:44.656Z,99.90
2023-01-11T05:32:12.806Z,99.90
2023-01-11T05:34:40.143Z,99.90
2023-01-11T05:37:07.451Z,99.90
2023-01-11T05:39:34.699Z,99.90
2023-01-11T05:42:01.917Z,99.90
2023-01-11T05:44:48.084Z,99.90
2023-01-11T05:47:15.358Z,99.90
2023-01-11T05:49:42.655Z,99.90
2023-01-11T05:52:09.886Z,99.90
2023-01-11T05:54:37.301Z,99.90
2023-01-11T05:57:10.480Z,99.90
2023-01-11T05:59:37.784Z,99.90
2023-01-11T06:02:05.151Z,99.90
2023-01-11T06:04:32.438Z,99.90
2023-01-11T06:06:59.687Z,99.90
2023-01-11T06:09:28.203Z,99.90
2023-01-11T06:11:55.556Z,99.90
2023-01-11T06:14:22.875Z,99.90
2023-01-11T06:16:50.149Z,99.90
2023-01-11T06:19:17.568Z,99.90
2023-01-11T06:21:44.994Z,99.90
2023-01-11T06:24:12.299Z,99.90
2023-01-11T06:26:39.566Z,99.90
2023-01-11T06:29:06.832Z,99.90
2023-01-11T06:31:34.171Z,99.90
2023-01-11T06:34:01.436Z,99.90
2023-01-11T06:36:29.835Z,99.90
2023-01-11T06:38:57.223Z,99.90
2023-01-11T06:41:24.477Z,99.90
2023-01-11T06:43:51.735Z,99.90
2023-01-11T06:46:19.423Z,99.90
2023-01-11T06:48:47.153Z,99.90
2023-01-11T06:51:21.759Z,99.90
2023-01-11T06:53:51.973Z,99.90
2023-01-11T06:56:19.283Z,99.90
2023-01-11T06:58:47.940Z,99.90
2023-01-11T07:01:17.156Z,99.90
2023-01-11T07:03:45.390Z,99.90
2023-01-11T07:06:13.833Z,99.90
2023-01-11T07:08:42.480Z,99.90
2023-01-11T07:11:10.073Z,99.90
2023-01-11T07:13:37.424Z,99.90
2023-01-11T07:16:04.963Z,99.90
2023-01-11T07:18:33.391Z,99.90
2023-01-11T07:21:00.717Z,99.90
2023-01-11T07:23:27.955Z,99.90
2023-01-11T07:25:55.382Z,99.90
2023-01-11T07:28:22.712Z,99.90
2023-01-11T07:30:58.498Z,99.90
2023-01-11T07:33:26.980Z,99.90
2023-01-11T07:35:54.485Z,99.90
2023-01-11T07:38:22.487Z,99.90
2023-01-11T07:40:49.914Z,99.90
2023-01-11T07:43:23.125Z,99.90
2023-01-11T07:45:52.422Z,99.90
2023-01-11T07:48:26.630Z,99.90
2023-01-11T07:50:54.926Z,99.90
2023-01-11T07:53:25.455Z,99.90
2023-01-11T07:55:54.758Z,99.90
2023-01-11T07:58:22.268Z,99.90
2023-01-11T08:00:49.650Z,99.90
2023-01-11T08:03:19.905Z,99.90
2023-01-11T08:05:54.205Z,99.90
2023-01-11T08:08:21.863Z,99.90
2023-01-11T08:11:09.083Z,99.90
2023-01-11T08:13:54.984Z,99.90
2023-01-11T08:16:22.343Z,99.90
2023-01-11T08:18:53.343Z,99.90
2023-01-11T08:21:21.388Z,99.90
2023-01-11T08:23:48.679Z,99.90
2023-01-11T08:26:17.945Z,99.90
2023-01-11T08:30:01.195Z,99.90
2023-01-11T08:32:29.226Z,99.90
2023-01-11T08:34:56.519Z,99.90
2023-01-11T08:37:23.843Z,99.90
2023-01-11T08:40:01.816Z,99.90
2023-01-11T08:42:29.516Z,99.90
2023-01-11T08:44:56.775Z,99.90
2023-01-11T08:47:24.061Z,99.90
2023-01-11T08:49:51.697Z,99.90
2023-01-11T08:52:19.059Z,99.90
2023-01-11T08:54:46.465Z,99.90
2023-01-11T09:00:14.137Z,99.90
2023-01-11T09:02:45.942Z,99.90
2023-01-11T09:05:13.454Z,99.90
2023-01-11T09:07:40.852Z,99.90
2023-01-11T09:10:32.956Z,99.90
2023-01-11T09:13:06.427Z,99.90
2023-01-11T09:15:33.695Z,99.90
2023-01-11T09:18:03.008Z,99.90
2023-01-11T09:20:55.512Z,99.40
2023-01-11T09:23:41.336Z,98.80
2023-01-11T09:26:17.444Z,99.10
2023-01-11T09:28:44.928Z,98.90
2023-01-11T09:31:12.257Z,98.30
2023-01-11T09:33:48.743Z,97.60
2023-01-11T09:36:18.831Z,96.00
2023-01-11T09:38:46.157Z,96.50
2023-01-11T09:41:43.920Z,96.90
2023-01-11T09:44:23.252Z,95.90
2023-01-11T09:46:56.117Z,95.50
2023-01-11T09:49:33.740Z,95.80
2023-01-11T09:52:40.100Z,94.80
2023-01-11T09:55:25.081Z,94.10
2023-01-11T09:58:18.463Z,94.40
2023-01-11T10:01:11.182Z,94.70
2023-01-11T10:04:15.942Z,94.80
2023-01-11T10:06:52.261Z,94.60
2023-01-11T10:18:38.922Z,94.90
2023-01-11T10:19:37.341Z,94.80
2023-01-11T10:22:18.807Z,94.60
2023-01-11T10:24:59.085Z,94.60
2023-01-11T10:27:39.570Z,94.30
2023-01-11T10:30:38.529Z,94.20
2023-01-11T10:33:14.669Z,93.30
2023-01-11T10:36:20.744Z,93.60
2023-01-11T10:39:11.467Z,93.60
2023-01-11T10:41:51.005Z,93.60
2023-01-11T10:44:28.898Z,93.70
2023-01-11T10:46:59.600Z,93.70
2023-01-11T10:49:49.103Z,94.00
2023-01-11T10:52:33.988Z,94.30
2023-01-11T10:55:14.244Z,94.10
2023-01-11T10:58:03.705Z,94.40
2023-01-11T11:00:53.241Z,94.40
2023-01-11T11:04:06.325Z,94.10
2023-01-11T11:07:01.694Z,94.20
2023-01-11T11:09:32.342Z,94.40
2023-01-11T11:12:32.618Z,95.10
2023-01-11T11:15:23.895Z,95.30
2023-01-11T11:17:53.072Z,94.90
2023-01-11T11:20:29.132Z,94.80
2023-01-11T11:23:24.361Z,94.50
2023-01-11T11:25:56.812Z,93.60
2023-01-11T11:31:43.620Z,94.10
2023-01-11T11:37:00.691Z,94.80
2023-01-11T11:39:54.043Z,95.30
2023-01-11T11:42:25.146Z,94.90
2023-01-11T11:45:16.404Z,95.20
2023-01-11T11:47:59.797Z,95.00
2023-01-11T11:50:43.784Z,95.00
2023-01-11T11:53:25.249Z,94.70
2023-01-11T11:55:53.210Z,93.80
2023-01-11T11:58:23.830Z,93.30
2023-01-11T12:00:52.875Z,93.40
2023-01-11T12:03:30.665Z,93.70
2023-01-11T12:06:01.167Z,94.00
2023-01-11T12:08:31.594Z,94.60
2023-01-11T12:11:01.543Z,94.90
2023-01-11T12:13:38.799Z,95.20
2023-01-11T12:16:40.149Z,95.10
2023-01-11T12:19:56.885Z,95.20
2023-01-11T12:23:10.571Z,95.10
2023-01-11T12:25:52.950Z,94.00
2023-01-11T12:28:28.343Z,93.80
2023-01-11T12:31:27.112Z,93.50
2023-01-11T12:34:18.771Z,94.00
2023-01-11T12:36:51.413Z,94.60
2023-01-11T12:39:45.226Z,95.00
2023-01-11T12:42:34.214Z,95.50
2023-01-11T12:45:24.285Z,95.80
2023-01-11T12:48:19.249Z,95.80
2023-01-11T12:50:59.902Z,95.90
2023-01-11T12:53:41.525Z,94.90
2023-01-11T12:56:39.500Z,94.40
2023-01-11T12:59:16.074Z,94.10
2023-01-11T13:02:07.811Z,93.10
2023-01-11T13:05:16.689Z,92.70
2023-01-11T13:07:57.589Z,92.80
2023-01-11T13:10:43.468Z,92.80
2023-01-11T13:13:22.210Z,92.40
2023-01-11T13:16:03.247Z,92.30
2023-01-11T13:18:40.615Z,91.80
2023-01-11T13:21:30.036Z,91.70
2023-01-11T13:24:26.498Z,90.60
2023-01-11T13:27:04.031Z,91.00
2023-01-11T13:29:41.005Z,90.80
2023-01-11T13:32:22.045Z,91.00
2023-01-11T13:34:57.480Z,91.70
2023-01-11T13:37:43.105Z,92.20
2023-01-11T13:40:32.962Z,93.50
2023-01-11T13:43:37.420Z,94.70
2023-01-11T13:46:16.680Z,95.00
2023-01-11T13:48:57.238Z,95.40
2023-01-11T13:51:53.514Z,95.30
2023-01-11T13:54:32.331Z,95.60
2023-01-11T13:57:07.206Z,95.20
2023-01-11T13:59:44.420Z,95.90
2023-01-11T14:02:30.959Z,96.30
2023-01-11T14:05:05.551Z,96.80
2023-01-11T14:07:44.131Z,97.10
2023-01-11T14:10:33.154Z,97.60
2023-01-11T14:13:06.353Z,98.00
2023-01-11T14:15:56.777Z,98.40
2023-01-11T14:18:40.913Z,98.60
2023-01-11T14:21:28.519Z,99.10
2023-01-11T14:23:56.921Z,99.00
2023-01-11T14:26:48.755Z,99.50
2023-01-11T14:29:37.130Z,99.10
2023-01-11T14:32:33.560Z,99.30
2023-01-11T14:35:32.991Z,99.40
2023-01-11T14:38:29.667Z,99.60
2023-01-11T14:41:03.015Z,99.80
2023-01-11T14:44:18.004Z,99.90
2023-01-11T14:47:16.259Z,99.90
2023-01-11T14:50:14.569Z,99.90
2023-01-11T14:52:43.719Z,99.90
2023-01-11T14:55:15.715Z,99.90
2023-01-11T14:58:01.648Z,99.90
2023-01-11T15:00:55.603Z,99.90
2023-01-11T15:03:22.853Z,99.90
2023-01-11T15:05:50.224Z,99.90
2023-01-11T15:08:24.523Z,99.90
2023-01-11T15:11:23.912Z,99.90
2023-01-11T15:14:32.698Z,99.90
2023-01-11T15:17:20.982Z,99.90
2023-01-11T15:19:49.857Z,99.90
2023-01-11T15:22:28.539Z,99.90
2023-01-11T15:24:59.914Z,99.90
2023-01-11T15:27:38.266Z,99.90
2023-01-11T15:30:09.106Z,99.90
2023-01-11T15:32:36.458Z,99.90
2023-01-11T15:35:32.682Z,99.90
2023-01-11T15:38:23.659Z,99.90
2023-01-11T15:40:54.131Z,99.90
2023-01-11T15:43:54.508Z,99.90
2023-01-11T15:46:52.925Z,99.90
2023-01-11T15:49:54.059Z,99.90
2023-01-11T15:52:51.041Z,99.90
2023-01-11T15:55:56.205Z,99.90
2023-01-11T15:58:38.412Z,99.90
2023-01-11T16:01:21.712Z,99.90
2023-01-11T16:04:24.082Z,99.90
2023-01-11T16:07:59.185Z,99.90
2023-01-11T16:10:29.544Z,99.90
2023-01-11T16:13:17.168Z,99.90
2023-01-11T16:16:10.496Z,99.90
2023-01-11T16:18:46.061Z,99.90
2023-01-11T16:21:40.437Z,99.90
2023-01-11T16:24:10.054Z,99.90
2023-01-11T16:26:39.961Z,99.90
2023-01-11T16:29:31.648Z,99.90
2023-01-11T16:32:04.782Z,99.90
2023-01-11T16:34:43.558Z,99.90
2023-01-11T16:37:26.887Z,99.90
2023-01-11T16:40:02.585Z,99.90
2023-01-11T16:42:34.400Z,99.90
2023-01-11T16:45:08.403Z,99.90
2023-01-11T16:47:35.982Z,99.90
2023-01-11T16:50:25.174Z,99.90
2023-01-11T16:52:54.400Z,99.90
2023-01-11T16:55:33.984Z,99.90
2023-01-11T16:58:06.048Z,99.90
2023-01-11T17:00:39.546Z,99.90
2023-01-11T17:03:38.407Z,99.90
2023-01-11T17:06:08.450Z,99.90
2023-01-11T17:08:40.549Z,99.90
2023-01-11T17:11:26.075Z,99.90
2023-01-11T17:14:05.685Z,99.90
2023-01-11T17:16:42.634Z,99.90
2023-01-11T17:19:19.224Z,99.90
2023-01-11T17:21:59.758Z,99.90
2023-01-11T17:24:27.665Z,99.90
2023-01-11T17:27:00.482Z,99.90
2023-01-11T17:29:42.897Z,99.90
2023-01-11T17:32:38.022Z,99.90
2023-01-11T17:35:14.196Z,99.90
2023-01-11T17:37:43.665Z,99.90
2023-01-11T17:40:26.396Z,99.90
2023-01-11T17:43:26.150Z,99.90
2023-01-11T17:45:59.940Z,99.90
2023-01-11T17:48:28.204Z,99.90
2023-01-11T17:51:04.183Z,99.90
2023-01-11T17:53:36.336Z,99.90
2023-01-11T17:56:07.177Z,99.90
2023-01-11T17:58:39.034Z,99.90
2023-01-11T18:01:26.709Z,99.90
2023-01-11T18:03:58.571Z,99.90
2023-01-11T18:06:34.445Z,99.90
2023-01-11T18:09:07.289Z,99.90
2023-01-11T18:11:40.425Z,99.90
2023-01-11T18:14:38.479Z,99.90
2023-01-11T18:17:31.997Z,99.90
2023-01-11T18:20:00.065Z,99.90
2023-01-11T18:22:40.439Z,99.90
2023-01-11T18:25:21.300Z,99.90
2023-01-11T18:27:49.615Z,99.90
2023-01-11T18:30:38.501Z,99.90
2023-01-11T18:33:19.654Z,99.90
2023-01-11T18:35:49.093Z,99.90
2023-01-11T18:38:17.815Z,99.90
2023-01-11T18:40:46.688Z,99.90
2023-01-11T18:43:15.033Z,99.90
2023-01-11T18:45:42.482Z,99.90
2023-01-11T18:48:12.087Z,99.90
2023-01-11T18:50:42.407Z,99.90
2023-01-11T18:53:13.879Z,99.90
2023-01-11T18:55:41.228Z,99.90
2023-01-11T18:58:09.817Z,99.90
2023-01-11T19:00:37.665Z,99.90
2023-01-11T19:03:05.923Z,99.90
2023-01-11T19:05:33.348Z,99.90
2023-01-11T19:08:00.654Z,99.90
2023-01-11T19:10:28.617Z,99.90
2023-01-11T19:12:57.187Z,99.90
2023-01-11T19:15:24.881Z,99.90
2023-01-11T19:17:52.392Z,99.90
2023-01-11T19:20:19.665Z,99.90
2023-01-11T19:22:46.959Z,99.90
2023-01-11T19:25:14.252Z,99.90
2023-01-11T19:27:41.659Z,99.90
2023-01-11T19:30:09.600Z,99.90
2023-01-11T19:32:36.932Z,99.90
2023-01-11T19:35:05.157Z,99.90
2023-01-11T19:37:42.437Z,99.90
2023-01-11T19:40:34.771Z,99.90
2023-01-11T19:43:02.066Z,99.90
2023-01-11T19:45:29.578Z,99.90
2023-01-11T19:47:58.959Z,99.90
2023-01-11T19:50:26.298Z,99.90
2023-01-11T19:52:53.587Z,99.90
2023-01-11T19:55:20.886Z,99.90
2023-01-11T19:57:48.305Z,99.90
2023-01-11T20:00:16.072Z,99.90
2023-01-11T20:02:43.685Z,99.90
2023-01-11T20:05:11.199Z,99.90
2023-01-11T20:07:38.467Z,99.90
2023-01-11T20:10:05.964Z,99.90
2023-01-11T20:12:33.188Z,99.90
2023-01-11T20:15:03.620Z,99.90
2023-01-11T20:17:35.764Z,99.90
2023-01-11T20:20:04.751Z,99.90
2023-01-11T20:22:32.784Z,99.90
2023-01-11T20:25:00.904Z,99.90
2023-01-11T20:27:28.756Z,99.90
2023-01-11T20:29:59.382Z,99.90
2023-01-11T20:32:41.404Z,99.90
2023-01-11T20:35:12.899Z,99.90
2023-01-11T20:37:40.392Z,99.90
2023-01-11T20:40:56.042Z,99.90
2023-01-11T20:44:14.976Z,99.90
2023-01-11T20:46:46.339Z,99.90
2023-01-11T20:52:51.823Z,99.90
2023-01-11T20:55:44.562Z,99.90
2023-01-11T20:58:13.852Z,99.90
2023-01-11T21:00:53.699Z,99.90
2023-01-11T21:03:24.708Z,99.90
2023-01-11T21:06:18.206Z,99.90
2023-01-11T21:08:48.551Z,99.90
2023-01-11T21:11:17.354Z,99.90
2023-01-11T21:13:44.621Z,99.90
2023-01-11T21:16:14.864Z,99.90
2023-01-11T21:18:43.953Z,99.90
2023-01-11T21:21:17.554Z,99.90
2023-01-11T21:23:46.448Z,99.90
2023-01-11T21:26:18.466Z,99.90
2023-01-11T21:28:51.468Z,99.90
2023-01-11T21:31:21.321Z,99.90
2023-01-11T21:33:52.873Z,99.90
2023-01-11T21:36:23.397Z,99.90
2023-01-11T21:38:51.557Z,99.90
2023-01-11T21:41:44.137Z,99.90
2023-01-11T21:44:15.527Z,99.90
2023-01-11T21:46:43.615Z,99.90
2023-01-11T21:49:12.273Z,99.90
2023-01-11T21:51:40.595Z,99.90
2023-01-11T21:54:14.038Z,99.90
2023-01-11T21:56:42.036Z,99.90
2023-01-11T22:01:52.359Z,99.90
2023-01-11T22:04:20.589Z,99.90
2023-01-11T22:06:53.891Z,99.90
2023-01-11T22:09:22.322Z,99.90
2023-01-11T22:11:50.980Z,99.90
2023-01-11T22:14:18.288Z,99.90
2023-01-11T22:16:45.900Z,99.90
2023-01-11T22:19:13.860Z,99.90
2023-01-11T22:21:43.897Z,99.90
2023-01-11T22:24:14.481Z,99.90
2023-01-11T22:26:42.020Z,99.90
2023-01-11T22:29:12.706Z,99.90
2023-01-11T22:31:44.598Z,99.90
2023-01-11T22:34:13.625Z,99.90
2023-01-11T22:36:41.980Z,99.90
2023-01-11T22:39:09.761Z,99.90
2023-01-11T22:41:37.201Z,99.90
2023-01-11T22:44:04.706Z,99.90
2023-01-11T22:46:32.104Z,99.90
2023-01-11T22:48:59.574Z,99.90
2023-01-11T22:51:26.996Z,99.90
2023-01-11T22:53:56.027Z,99.90
2023-01-11T22:56:25.977Z,99.90
2023-01-11T22:58:54.049Z,99.90
2023-01-11T23:01:22.462Z,99.90
2023-01-11T23:03:53.959Z,99.90
2023-01-11T23:06:24.005Z,99.90
2023-01-11T23:08:51.842Z,99.90
2023-01-11T23:11:40.661Z,99.90
2023-01-11T23:14:10.848Z,99.90
2023-01-11T23:16:38.894Z,99.90
2023-01-11T23:19:07.424Z,99.90
2023-01-11T23:21:35.106Z,99.90
2023-01-11T23:24:03.481Z,99.90
2023-01-11T23:26:30.822Z,99.90
2023-01-11T23:28:58.348Z,99.90
2023-01-11T23:31:27.913Z,99.90
2023-01-11T23:33:57.927Z,99.90
2023-01-11T23:36:38.690Z,99.90
2023-01-11T23:39:07.884Z,99.90
2023-01-11T23:41:53.575Z,99.90
2023-01-11T23:44:22.628Z,99.90
2023-01-11T23:47:09.526Z,99.90
2023-01-11T23:49:36.795Z,99.90
2023-01-11T23:52:04.464Z,99.90
2023-01-11T23:54:33.336Z,99.90
2023-01-11T23:57:04.554Z,99.90
2023-01-11T23:59:32.068Z,99.90
